createdAt,value
2019-03-22T00:00:30.784Z,42.62
2019-03-22T00:02:59.226Z,41.03
2019-03-22T00:05:27.657Z,41.55
2019-03-22T00:07:56.097Z,41.85
2019-03-22T00:10:24.533Z,41.25
2019-03-22T00:12:52.982Z,44.30
2019-03-22T00:15:21.421Z,45.97
2019-03-22T00:17:49.853Z,42.78
2019-03-22T00:20:18.284Z,42.20
2019-03-22T00:22:46.738Z,44.88
2019-03-22T00:25:15.183Z,43.08
2019-03-22T00:27:43.677Z,44.33
2019-03-22T00:30:12.270Z,45.50
2019-03-22T00:32:40.697Z,44.23
2019-03-22T00:35:09.693Z,43.00
2019-03-22T00:37:38.133Z,43.30
2019-03-22T00:40:07.320Z,43.63
2019-03-22T00:42:35.749Z,42.80
2019-03-22T00:45:06.036Z,48.43
2019-03-22T00:47:34.458Z,53.33
2019-03-22T00:50:04.941Z,52.23
2019-03-22T00:52:33.685Z,51.88
2019-03-22T00:55:02.149Z,54.08
2019-03-22T00:57:30.571Z,55.63
2019-03-22T00:59:59.019Z,53.83
2019-03-22T01:02:27.444Z,58.40
2019-03-22T01:04:55.887Z,54.42
2019-03-22T01:07:24.323Z,54.75
2019-03-22T01:09:52.772Z,58.65
2019-03-22T01:12:21.477Z,56.88
2019-03-22T01:14:49.917Z,57.62
2019-03-22T01:17:18.341Z,56.70
2019-03-22T01:19:46.788Z,55.90
2019-03-22T01:22:15.231Z,55.92
2019-03-22T01:24:43.674Z,51.10
2019-03-22T01:27:12.113Z,52.53
2019-03-22T01:29:40.621Z,49.93
2019-03-22T01:32:09.070Z,54.33
2019-03-22T01:34:37.501Z,48.40
2019-03-22T01:37:05.945Z,48.08
2019-03-22T01:39:34.375Z,51.15
2019-03-22T01:42:02.818Z,49.90
2019-03-22T01:44:31.248Z,49.77
2019-03-22T01:46:59.680Z,51.00
2019-03-22T01:49:28.141Z,46.42
2019-03-22T01:51:56.588Z,53.70
2019-03-22T01:54:25.041Z,47.95
2019-03-22T01:56:53.464Z,51.55
2019-03-22T01:59:21.903Z,51.50
2019-03-22T02:01:50.329Z,48.70
2019-03-22T02:04:18.781Z,47.15
2019-03-22T02:06:47.217Z,49.13
2019-03-22T02:09:15.703Z,50.58
2019-03-22T02:11:44.177Z,53.45
2019-03-22T02:14:12.609Z,58.20
2019-03-22T02:16:41.360Z,53.58
2019-03-22T02:19:10.055Z,54.38
2019-03-22T02:21:38.504Z,53.98
2019-03-22T02:24:06.942Z,52.67
2019-03-22T02:26:35.373Z,54.03
2019-03-22T02:29:03.834Z,53.23
2019-03-22T02:31:32.274Z,53.60
2019-03-22T02:34:00.710Z,56.13
2019-03-22T02:36:29.152Z,54.27
2019-03-22T02:38:57.583Z,52.20
2019-03-22T02:41:26.357Z,51.30
2019-03-22T02:43:55.034Z,53.20
2019-03-22T02:46:23.933Z,52.90
2019-03-22T02:48:52.444Z,53.00
2019-03-22T02:51:20.882Z,51.73
2019-03-22T02:53:49.378Z,52.67
2019-03-22T02:56:17.818Z,55.03
2019-03-22T02:58:46.354Z,52.83
2019-03-22T03:01:14.842Z,51.95
2019-03-22T03:03:43.272Z,55.98
2019-03-22T03:06:11.713Z,50.60
2019-03-22T03:08:40.150Z,54.42
2019-03-22T03:11:08.584Z,52.65
2019-03-22T03:13:37.030Z,52.40
2019-03-22T03:16:05.461Z,52.48
2019-03-22T03:18:33.902Z,50.87
2019-03-22T03:21:02.326Z,52.70
2019-03-22T03:23:30.773Z,48.48
2019-03-22T03:25:59.207Z,52.50
2019-03-22T03:28:36.869Z,52.60
2019-03-22T03:30:57.875Z,53.85
2019-03-22T03:33:26.330Z,56.70
2019-03-22T03:35:54.816Z,52.55
2019-03-22T03:38:23.270Z,47.15
2019-03-22T03:40:51.692Z,47.85
2019-03-22T03:43:20.143Z,50.55
2019-03-22T03:45:48.552Z,54.70
2019-03-22T03:48:16.985Z,52.73
2019-03-22T03:50:45.433Z,47.93
2019-03-22T03:53:13.862Z,51.25
2019-03-22T03:55:42.295Z,50.90
2019-03-22T03:58:10.754Z,52.80
2019-03-22T04:00:39.181Z,55.98
2019-03-22T04:03:07.611Z,55.67
2019-03-22T04:05:36.045Z,52.55
2019-03-22T04:08:04.917Z,52.65
2019-03-22T04:10:33.369Z,55.67
2019-03-22T04:13:01.797Z,53.80
2019-03-22T04:15:30.230Z,56.07
2019-03-22T04:17:58.663Z,61.37
2019-03-22T04:20:27.104Z,62.73
2019-03-22T04:22:55.791Z,67.12
2019-03-22T04:25:24.271Z,58.28
2019-03-22T04:27:53.429Z,58.92
2019-03-22T04:30:21.861Z,61.63
2019-03-22T04:32:50.642Z,65.57
2019-03-22T04:35:19.082Z,67.05
2019-03-22T04:37:47.509Z,59.80
2019-03-22T04:40:26.577Z,62.98
2019-03-22T04:42:55.142Z,61.77
2019-03-22T04:45:25.380Z,60.65
2019-03-22T04:48:12.101Z,60.03
2019-03-22T04:50:43.425Z,58.35
2019-03-22T04:53:14.930Z,59.90
2019-03-22T04:55:46.597Z,58.65
2019-03-22T04:58:16.769Z,59.95
2019-03-22T05:00:46.157Z,59.15
2019-03-22T05:03:14.751Z,60.58
2019-03-22T05:05:44.933Z,58.42
2019-03-22T05:08:15.873Z,58.38
2019-03-22T05:10:45.166Z,54.67
2019-03-22T05:13:15.505Z,55.35
2019-03-22T05:15:44.380Z,58.45
2019-03-22T05:18:13.089Z,56.70
2019-03-22T05:20:43.949Z,62.62
2019-03-22T05:23:13.615Z,58.17
2019-03-22T05:25:43.223Z,57.33
2019-03-22T05:28:12.891Z,59.48
2019-03-22T05:30:53.373Z,60.08
2019-03-22T05:33:21.809Z,60.90
2019-03-22T05:35:50.260Z,58.00
2019-03-22T05:38:18.685Z,57.00
2019-03-22T05:40:47.129Z,59.25
2019-03-22T05:43:15.574Z,59.13
2019-03-22T05:45:44.003Z,56.90
2019-03-22T05:48:12.433Z,57.75
2019-03-22T05:50:40.861Z,58.42
2019-03-22T05:53:09.309Z,58.05
2019-03-22T05:55:37.750Z,58.85
2019-03-22T05:58:07.743Z,60.95
2019-03-22T06:00:36.172Z,57.03
2019-03-22T06:03:04.620Z,60.65
2019-03-22T06:05:33.053Z,60.30
2019-03-22T06:08:01.488Z,64.60
2019-03-22T06:10:29.944Z,60.92
2019-03-22T06:12:58.381Z,61.83
2019-03-22T06:15:26.817Z,60.55
2019-03-22T06:17:55.248Z,66.50
2019-03-22T06:20:23.692Z,63.25
2019-03-22T06:22:52.122Z,62.20
2019-03-22T06:25:20.633Z,63.33
2019-03-22T06:27:49.132Z,67.85
2019-03-22T06:30:17.632Z,63.80
2019-03-22T06:32:46.141Z,63.85
2019-03-22T06:35:14.576Z,63.15
2019-03-22T06:37:43.026Z,63.75
2019-03-22T06:40:11.942Z,67.25
2019-03-22T06:42:40.477Z,64.90
2019-03-22T06:45:09.247Z,65.10
2019-03-22T06:47:37.719Z,58.28
2019-03-22T06:50:07.364Z,65.05
2019-03-22T06:52:35.804Z,64.65
2019-03-22T06:55:06.342Z,62.85
2019-03-22T06:57:34.797Z,60.10
2019-03-22T07:00:07.961Z,60.83
2019-03-22T07:02:36.422Z,60.75
2019-03-22T07:05:06.494Z,63.02
2019-03-22T07:07:35.011Z,62.30
2019-03-22T07:10:05.281Z,60.83
2019-03-22T07:12:33.725Z,61.28
2019-03-22T07:15:02.191Z,60.50
2019-03-22T07:17:30.632Z,60.30
2019-03-22T07:19:59.065Z,58.92
2019-03-22T07:22:27.514Z,60.65
2019-03-22T07:24:55.975Z,59.85
2019-03-22T07:27:24.445Z,60.85
2019-03-22T07:29:52.865Z,62.13
2019-03-22T07:32:21.318Z,62.70
2019-03-22T07:34:49.770Z,66.00
2019-03-22T07:37:18.206Z,56.53
2019-03-22T07:39:46.643Z,60.07
2019-03-22T07:42:17.487Z,60.98
2019-03-22T07:44:45.301Z,61.45
2019-03-22T07:47:13.773Z,67.15
2019-03-22T07:49:42.259Z,70.87
2019-03-22T07:52:10.715Z,65.92
2019-03-22T07:54:39.186Z,68.30
2019-03-22T07:57:07.716Z,74.30
2019-03-22T07:59:36.205Z,76.82
2019-03-22T08:02:05.021Z,70.07
2019-03-22T08:04:33.464Z,66.85
2019-03-22T08:07:01.898Z,64.82
2019-03-22T08:09:30.668Z,66.20
2019-03-22T08:11:59.468Z,66.53
2019-03-22T08:14:28.104Z,65.47
2019-03-22T08:16:56.541Z,67.10
2019-03-22T08:19:25.005Z,65.90
2019-03-22T08:21:53.597Z,69.10
2019-03-22T08:24:22.064Z,70.08
2019-03-22T08:26:50.572Z,73.43
2019-03-22T08:29:19.000Z,63.25
2019-03-22T08:31:47.465Z,59.18
2019-03-22T08:34:16.052Z,57.03
2019-03-22T08:36:45.505Z,61.02
2019-03-22T08:39:14.279Z,61.88
2019-03-22T08:41:42.792Z,61.25
2019-03-22T08:44:11.241Z,58.47
2019-03-22T08:46:39.744Z,57.62
2019-03-22T08:49:09.651Z,57.25
2019-03-22T08:51:43.665Z,61.23
2019-03-22T08:54:12.177Z,55.30
2019-03-22T08:56:40.670Z,54.13
2019-03-22T08:59:09.137Z,53.93
2019-03-22T09:01:37.598Z,51.53
2019-03-22T09:04:06.096Z,51.23
2019-03-22T09:06:34.564Z,52.08
2019-03-22T09:09:03.467Z,49.33
2019-03-22T09:11:31.935Z,49.03
2019-03-22T09:14:00.352Z,48.57
2019-03-22T09:16:30.797Z,50.58
2019-03-22T09:18:59.012Z,46.83
2019-03-22T09:21:27.446Z,48.63
2019-03-22T09:23:55.886Z,48.38
2019-03-22T09:26:24.343Z,50.17
2019-03-22T09:28:52.854Z,50.92
2019-03-22T09:31:21.406Z,48.57
2019-03-22T09:33:49.932Z,48.60
2019-03-22T09:36:19.299Z,45.08
2019-03-22T09:38:47.826Z,50.45
2019-03-22T09:41:16.345Z,52.13
2019-03-22T09:43:44.784Z,50.35
2019-03-22T09:46:13.337Z,51.00
2019-03-22T09:48:41.843Z,54.63
2019-03-22T09:51:10.343Z,52.38
2019-03-22T09:53:38.843Z,47.83
2019-03-22T09:56:07.307Z,52.95
2019-03-22T09:58:35.745Z,50.95
2019-03-22T10:01:04.257Z,48.68
2019-03-22T10:03:34.306Z,48.05
2019-03-22T10:06:02.768Z,49.90
2019-03-22T10:08:31.279Z,50.48
2019-03-22T10:10:59.733Z,49.65
2019-03-22T10:13:28.167Z,52.93
2019-03-22T10:15:56.726Z,55.48
2019-03-22T10:18:25.250Z,48.63
2019-03-22T10:20:53.809Z,52.50
2019-03-22T10:23:22.511Z,54.33
2019-03-22T10:25:51.129Z,51.92
2019-03-22T10:28:19.662Z,50.30
2019-03-22T10:30:48.190Z,51.42
2019-03-22T10:33:22.438Z,51.97
2019-03-22T10:35:46.859Z,50.73
2019-03-22T10:38:16.457Z,52.20
2019-03-22T10:40:45.237Z,52.27
2019-03-22T10:43:13.700Z,51.28
2019-03-22T10:45:42.210Z,54.20
2019-03-22T10:48:10.690Z,52.33
2019-03-22T10:50:39.149Z,52.67
2019-03-22T10:53:07.956Z,52.70
2019-03-22T10:55:36.392Z,51.65
2019-03-22T10:58:04.953Z,51.85
2019-03-22T11:00:33.388Z,51.33
2019-03-22T11:03:01.828Z,52.08
2019-03-22T11:05:30.261Z,55.60
2019-03-22T11:07:58.706Z,50.17
2019-03-22T11:10:27.140Z,50.15
2019-03-22T11:12:55.586Z,50.05
2019-03-22T11:15:24.134Z,50.43
2019-03-22T11:17:52.641Z,52.30
2019-03-22T11:20:21.068Z,54.70
2019-03-22T11:22:49.505Z,49.15
2019-03-22T11:25:17.937Z,48.37
2019-03-22T11:27:46.419Z,50.10
2019-03-22T11:30:17.776Z,51.35
2019-03-22T11:32:46.304Z,48.98
2019-03-22T11:35:14.869Z,51.92
2019-03-22T11:37:43.596Z,50.33
2019-03-22T11:40:14.975Z,49.58
2019-03-22T11:42:43.533Z,68.97
2019-03-22T11:45:15.121Z,49.80
2019-03-22T11:47:43.902Z,50.83
2019-03-22T11:50:12.727Z,49.50
2019-03-22T11:52:41.204Z,48.68
2019-03-22T11:55:12.181Z,50.63
2019-03-22T11:57:40.688Z,49.83
2019-03-22T12:00:17.441Z,50.63
2019-03-22T12:02:45.887Z,48.52
2019-03-22T12:05:15.857Z,49.55
2019-03-22T12:07:44.375Z,51.20
2019-03-22T12:10:18.373Z,53.38
2019-03-22T12:12:46.900Z,54.10
2019-03-22T12:15:23.579Z,54.03
2019-03-22T12:17:52.103Z,50.58
2019-03-22T12:20:22.901Z,51.35
2019-03-22T12:22:51.919Z,52.10
2019-03-22T12:25:25.547Z,52.30
2019-03-22T12:27:53.968Z,52.80
2019-03-22T12:30:22.400Z,52.80
2019-03-22T12:32:50.901Z,51.10
2019-03-22T12:35:19.356Z,49.77
2019-03-22T12:37:48.064Z,52.03
2019-03-22T12:40:18.871Z,51.75
2019-03-22T12:42:47.341Z,54.70
2019-03-22T12:45:29.880Z,52.62
2019-03-22T12:47:58.339Z,52.67
2019-03-22T12:50:27.084Z,52.08
2019-03-22T12:52:55.578Z,53.10
2019-03-22T12:55:24.045Z,53.65
2019-03-22T12:57:52.740Z,52.98
2019-03-22T13:00:25.049Z,55.25
2019-03-22T13:02:53.935Z,52.13
2019-03-22T13:05:23.132Z,52.78
2019-03-22T13:07:51.850Z,54.45
2019-03-22T13:10:22.781Z,58.00
2019-03-22T13:12:51.384Z,53.00
2019-03-22T13:15:19.937Z,56.80
2019-03-22T13:17:48.365Z,53.25
2019-03-22T13:20:16.980Z,52.90
2019-03-22T13:22:45.493Z,53.73
2019-03-22T13:25:15.830Z,55.43
2019-03-22T13:27:44.300Z,52.55
2019-03-22T13:30:28.196Z,53.80
2019-03-22T13:32:56.640Z,54.93
2019-03-22T13:35:26.173Z,54.05
2019-03-22T13:37:54.702Z,53.90
2019-03-22T13:40:23.161Z,53.15
2019-03-22T13:42:51.630Z,54.25
2019-03-22T13:45:20.087Z,53.33
2019-03-22T13:47:48.563Z,55.65
2019-03-22T13:50:17.047Z,54.67
2019-03-22T13:52:45.678Z,56.20
2019-03-22T13:55:17.243Z,54.53
2019-03-22T13:57:45.932Z,56.40
2019-03-22T14:02:46.930Z,54.25
2019-03-22T14:05:18.972Z,57.25
2019-03-22T14:07:47.557Z,54.45
2019-03-22T14:10:21.691Z,52.48
2019-03-22T14:12:50.273Z,55.85
2019-03-22T14:15:18.730Z,56.25
2019-03-22T14:17:47.192Z,56.95
2019-03-22T14:20:15.666Z,55.50
2019-03-22T14:22:44.112Z,55.83
2019-03-22T14:25:12.562Z,55.15
2019-03-22T14:27:41.000Z,55.78
2019-03-22T14:30:10.622Z,55.05
2019-03-22T14:32:39.073Z,52.30
2019-03-22T14:35:08.188Z,54.05
2019-03-22T14:37:36.642Z,55.17
2019-03-22T14:40:06.699Z,54.53
2019-03-22T14:42:35.146Z,54.55
2019-03-22T14:45:05.885Z,53.60
2019-03-22T14:47:34.320Z,52.65
2019-03-22T14:50:02.753Z,53.08
2019-03-22T14:52:31.202Z,52.93
2019-03-22T14:54:59.649Z,52.50
2019-03-22T14:57:28.578Z,52.83
2019-03-22T14:59:59.182Z,56.08
2019-03-22T15:02:27.559Z,53.50
2019-03-22T15:04:56.001Z,49.93
2019-03-22T15:07:24.437Z,53.83
2019-03-22T15:09:52.885Z,54.50
2019-03-22T15:12:21.325Z,54.30
2019-03-22T15:15:07.725Z,52.83
2019-03-22T15:17:52.932Z,51.05
2019-03-22T15:20:28.940Z,52.53
2019-03-22T15:23:10.772Z,51.37
2019-03-22T15:25:57.249Z,52.88
2019-03-22T15:28:27.326Z,53.38
2019-03-22T15:31:13.620Z,54.00
2019-03-22T15:33:55.925Z,53.70
2019-03-22T15:36:41.627Z,53.85
2019-03-22T15:39:14.757Z,55.80
2019-03-22T15:41:43.328Z,54.00
2019-03-22T15:44:11.814Z,53.90
2019-03-22T15:46:40.376Z,52.35
2019-03-22T15:49:08.817Z,53.90
2019-03-22T15:51:37.263Z,54.55
2019-03-22T15:54:05.695Z,55.08
2019-03-22T15:56:34.151Z,54.53
2019-03-22T15:59:02.589Z,54.80
2019-03-22T16:01:31.020Z,55.37
2019-03-22T16:03:59.459Z,53.87
2019-03-22T16:06:27.904Z,53.53
2019-03-22T16:08:56.336Z,56.73
2019-03-22T16:11:24.779Z,55.80
2019-03-22T16:13:53.259Z,56.37
2019-03-22T16:16:21.681Z,58.98
2019-03-22T16:18:50.125Z,55.98
2019-03-22T16:21:18.566Z,56.20
2019-03-22T16:23:47.015Z,55.55
2019-03-22T16:26:15.449Z,57.25
2019-03-22T16:28:43.893Z,57.65
2019-03-22T16:31:12.320Z,56.48
2019-03-22T16:33:40.764Z,57.93
2019-03-22T16:36:11.116Z,57.73
2019-03-22T16:38:41.858Z,57.90
2019-03-22T16:41:11.112Z,58.05
2019-03-22T16:43:41.754Z,57.87
2019-03-22T16:46:14.234Z,58.58
2019-03-22T16:48:43.413Z,58.80
2019-03-22T16:51:11.901Z,58.70
2019-03-22T16:53:40.496Z,58.50
2019-03-22T16:56:08.929Z,57.53
2019-03-22T16:58:37.385Z,59.60
2019-03-22T17:01:06.644Z,55.55
2019-03-22T17:03:35.410Z,56.35
2019-03-22T17:06:03.867Z,55.03
2019-03-22T17:08:32.382Z,56.77
2019-03-22T17:11:00.907Z,56.13
2019-03-22T17:13:29.338Z,56.30
2019-03-22T17:15:57.768Z,57.70
2019-03-22T17:18:26.212Z,58.73
2019-03-22T17:20:54.644Z,59.53
2019-03-22T17:23:23.095Z,58.80
2019-03-22T17:25:51.550Z,59.88
2019-03-22T17:28:20.006Z,58.23
2019-03-22T17:30:48.442Z,58.25
2019-03-22T17:33:16.894Z,57.35
2019-03-22T17:35:45.333Z,59.73
2019-03-22T17:38:13.769Z,59.08
2019-03-22T17:40:42.216Z,58.50
2019-03-22T17:43:10.640Z,60.75
2019-03-22T17:45:39.077Z,60.28
2019-03-22T17:48:07.504Z,61.83
2019-03-22T17:50:35.949Z,58.55
2019-03-22T17:53:04.388Z,56.92
2019-03-22T17:55:32.829Z,56.98
2019-03-22T17:58:01.395Z,58.40
2019-03-22T18:00:29.856Z,64.03
2019-03-22T18:02:58.347Z,60.50
2019-03-22T18:05:26.810Z,62.62
2019-03-22T18:07:55.610Z,61.45
2019-03-22T18:10:24.059Z,64.37
2019-03-22T18:12:52.483Z,62.25
2019-03-22T18:15:20.945Z,61.50
2019-03-22T18:17:49.399Z,61.83
2019-03-22T18:20:18.313Z,62.03
2019-03-22T18:22:46.821Z,63.87
2019-03-22T18:25:15.865Z,64.07
2019-03-22T18:27:44.791Z,62.60
2019-03-22T18:30:14.969Z,64.87
2019-03-22T18:32:43.410Z,64.25
2019-03-22T18:35:12.198Z,62.20
2019-03-22T18:37:40.647Z,63.45
2019-03-22T18:40:11.417Z,66.00
2019-03-22T18:42:39.877Z,66.10
2019-03-22T18:45:10.811Z,63.20
2019-03-22T18:47:39.365Z,64.67
2019-03-22T18:50:10.149Z,64.77
2019-03-22T18:52:38.615Z,64.55
2019-03-22T18:55:07.761Z,63.95
2019-03-22T18:57:36.489Z,62.78
2019-03-22T19:00:07.419Z,62.10
2019-03-22T19:02:36.217Z,63.23
2019-03-22T19:05:07.127Z,64.85
2019-03-22T19:07:35.578Z,61.65
2019-03-22T19:10:06.534Z,61.10
2019-03-22T19:12:34.983Z,62.45
2019-03-22T19:15:04.967Z,62.85
2019-03-22T19:17:33.393Z,63.55
2019-03-22T19:20:01.835Z,62.45
2019-03-22T19:22:30.276Z,64.45
2019-03-22T19:24:58.722Z,64.10
2019-03-22T19:27:27.175Z,62.98
2019-03-22T19:29:55.602Z,64.60
2019-03-22T19:32:24.041Z,66.72
2019-03-22T19:34:54.522Z,65.08
2019-03-22T19:37:23.588Z,68.25
2019-03-22T19:39:52.029Z,72.03
2019-03-22T19:42:20.479Z,67.80
2019-03-22T19:44:48.992Z,67.50
2019-03-22T19:47:17.480Z,64.27
2019-03-22T19:49:46.040Z,68.17
2019-03-22T19:52:14.509Z,63.68
2019-03-22T19:54:42.995Z,65.10
2019-03-22T19:57:11.433Z,69.50
2019-03-22T19:59:39.936Z,66.35
2019-03-22T20:02:08.386Z,65.47
2019-03-22T20:04:36.821Z,64.12
2019-03-22T20:07:05.247Z,65.45
2019-03-22T20:09:33.687Z,64.77
2019-03-22T20:12:02.565Z,65.57
2019-03-22T20:14:30.990Z,69.93
2019-03-22T20:16:59.424Z,66.85
2019-03-22T20:19:27.894Z,66.33
2019-03-22T20:21:56.317Z,68.45
2019-03-22T20:24:24.756Z,67.35
2019-03-22T20:26:53.189Z,70.12
2019-03-22T20:29:21.628Z,74.35
2019-03-22T20:31:50.060Z,70.97
2019-03-22T20:34:19.428Z,69.15
2019-03-22T20:36:47.859Z,72.53
2019-03-22T20:39:16.302Z,73.95
2019-03-22T20:41:44.745Z,73.65
2019-03-22T20:44:13.196Z,72.47
2019-03-22T20:46:41.624Z,70.97
2019-03-22T20:49:10.074Z,72.35
2019-03-22T20:51:38.579Z,74.65
2019-03-22T20:54:07.013Z,76.45
2019-03-22T20:56:35.436Z,73.87
2019-03-22T20:59:03.878Z,71.22
2019-03-22T21:01:32.402Z,73.83
2019-03-22T21:04:00.850Z,72.53
2019-03-22T21:06:29.280Z,72.97
2019-03-22T21:08:57.775Z,75.55
2019-03-22T21:11:26.273Z,73.37
2019-03-22T21:13:54.722Z,76.55
2019-03-22T21:16:23.147Z,78.17
2019-03-22T21:18:51.596Z,76.53
2019-03-22T21:21:20.033Z,77.22
2019-03-22T21:23:48.458Z,77.90
2019-03-22T21:26:16.894Z,79.58
2019-03-22T21:28:45.338Z,77.37
2019-03-22T21:31:13.797Z,79.32
2019-03-22T21:33:42.243Z,76.65
2019-03-22T21:36:10.704Z,84.13
2019-03-22T21:38:39.388Z,83.00
2019-03-22T21:41:07.838Z,82.10
2019-03-22T21:43:36.259Z,77.80
2019-03-22T21:46:04.758Z,89.87
2019-03-22T21:48:33.209Z,83.52
2019-03-22T21:51:01.677Z,84.62
2019-03-22T21:53:30.106Z,86.97
2019-03-22T21:55:58.546Z,86.28
2019-03-22T21:58:26.996Z,83.97
2019-03-22T22:00:55.505Z,90.17
2019-03-22T22:03:23.932Z,80.27
2019-03-22T22:05:52.380Z,86.08
2019-03-22T22:08:20.848Z,83.58
2019-03-22T22:10:59.424Z,83.30
2019-03-22T22:13:19.458Z,84.03
2019-03-22T22:15:47.904Z,89.37
2019-03-22T22:18:16.318Z,85.53
2019-03-22T22:20:44.792Z,89.53
2019-03-22T22:23:13.233Z,96.32
2019-03-22T22:25:41.844Z,87.60
2019-03-22T22:28:10.630Z,90.77
2019-03-22T22:30:39.069Z,91.60
2019-03-22T22:33:07.530Z,92.30
2019-03-22T22:35:36.279Z,94.43
2019-03-22T22:38:04.722Z,92.67
2019-03-22T22:40:33.151Z,95.35
2019-03-22T22:43:01.617Z,98.47
2019-03-22T22:45:30.384Z,96.22
2019-03-22T22:47:58.838Z,99.62
2019-03-22T22:50:27.277Z,93.33
2019-03-22T22:52:55.713Z,94.97
2019-03-22T22:55:24.423Z,99.70
2019-03-22T22:57:52.873Z,96.30
2019-03-22T23:00:21.318Z,94.58
2019-03-22T23:02:49.765Z,98.83
2019-03-22T23:05:18.218Z,99.62
2019-03-22T23:07:46.670Z,100.53
2019-03-22T23:10:15.102Z,96.97
2019-03-22T23:12:44.116Z,95.60
2019-03-22T23:15:13.207Z,97.80
2019-03-22T23:17:41.651Z,99.72
2019-03-22T23:20:11.028Z,98.92
2019-03-22T23:22:39.757Z,97.60
2019-03-22T23:25:08.824Z,97.67
2019-03-22T23:27:37.542Z,99.75
2019-03-22T23:30:12.798Z,102.40
2019-03-22T23:32:41.402Z,103.65
2019-03-22T23:35:09.912Z,99.37
2019-03-22T23:37:38.369Z,95.42
2019-03-22T23:40:07.257Z,98.22
2019-03-22T23:42:35.690Z,102.15
2019-03-22T23:45:06.267Z,98.00
2019-03-22T23:47:34.960Z,105.00
2019-03-22T23:50:05.355Z,102.47
2019-03-22T23:52:33.798Z,100.97
2019-03-22T23:55:02.254Z,103.40
2019-03-22T23:57:30.696Z,106.70
2019-03-22T23:59:59.183Z,108.12
